Meteo Giornale » Osservazioni meteo Italia » Resia Pass

ore: 02:55 - Osservazioni Meteo Resia Pass
Lat. 46° 50' N Lon. 10° 30' E Alt. 1800 metri s.l.m.

sereno Europe/Rome

5 °C

Sereno

Temp. 24 Ore

2 °C

15 °C

Nord/Nord-Est

7.4 Km/h

Dew point 1 °C

Umidità 75 %

Visibilità  10 Km

Il sole sorge alle ore 07:04

Il sole tramonta alle ore 19:16

Data e Ora Cielo e Fenomeni T °C DP °C Um. % Pres. hPa Vis. km Vento km/h
Oggi h: 02:55 sereno Sereno 5 1 75 1023 10 N/NE 7.4
Oggi h: 01:55 sereno Sereno 6 2 75 1023 10 N 9.3
Oggi h: 00:55 sereno Sereno 6 2 75 1023 10 N/NE 9.3
Ieri h: 23:55 sereno Sereno 7 3 75 1022 10 N/NE 9.3
Ieri h: 22:55 sereno Sereno 7 3 75 1022 10 N/NE 13
Ieri h: 21:55 sereno Sereno 8 0 56 1022 10 N/NE 13
Ieri h: 20:55 sereno Sereno 8 -1 52 1021 10 N/NE 11.1
Ieri h: 19:55 sereno Sereno 9 -5 36 1021 10 NE 9.3
Ieri h: 18:55 sereno Sereno 10 -2 42 1020 10 N 3.7
Ieri h: 17:55 sereno Sereno 12 -6 27 1020 10 N 5.5
Ieri h: 16:55 sereno Sereno 14 -6 24 1020 10 N 11.1
Ieri h: 15:55 sereno Sereno 15 -7 21 1021 10 N 9.3
Ieri h: 14:55 sereno Sereno 15 -8 19 1021 10 N 13
Ieri h: 13:55 sereno Sereno 15 -8 19 1021 10 N 11.1
Ieri h: 12:55 sereno Sereno 14 -7 22 1021 10 N 9.3
Ieri h: 11:55 sereno Sereno 10 -5 34 1022 10 E/NE 11.1
Ieri h: 10:55 sereno Sereno 5 -2 60 1022 10 NE 9.3
Ieri h: 09:55 sereno Sereno 5 -1 65 1022 10 N 5.5
Ieri h: 08:55 sereno Sereno 2 -0 86 1022 10 N/NE 7.4
Ieri h: 07:55 sereno Sereno 2 -0 86 1022 10 N 5.5
Ieri h: 06:55 sereno Sereno 3 1 86 1022 10 N 5.5
Ieri h: 05:55 sereno Sereno 3 1 86 1022 10 N 9.3
Ieri h: 04:55 sereno Sereno 3 1 86 1022 10 N 3.7